Nearby METAR Reports

 

KSBP - San Luis Obispo, California, USA
Distance from station: S 14mi, 22km
Updated: Sun, 20-May-2018 3:56pm
Clear
Clear
 Wind from WNW
Wind: WNW 17 mph , 28 km/h, Gust: 25 mph , 41 km/h
Temperature: 61°F , 16°C
Dew Point: 48°F , 9°C
Humidity: 63%
Barometer: 1013.9 hPa
Clouds: Clear
Visibility: 10 miles , 16 km
2018/05/20 22:56 KSBP 202256Z AUTO 30015G22KT 10SM CLR 16/09 A2994 RMK AO2 SLP139 T01560089
KPRB - Paso Robles, California, USA
Distance from station: N 16mi, 26km
Updated: Sun, 20-May-2018 2:53pm
Clear
Clear
 Wind from NW
Wind: NW 8 mph , 13 km/h, Gust: 17 mph , 28 km/h
Temperature: 77°F , 25°C
Dew Point: 43°F , 6°C
Humidity: 30%
Barometer: 1012.5 hPa
Clouds: Clear
Visibility: 10 miles , 16 km
2018/05/20 21:53 KPRB 202153Z AUTO 32007G15KT 10SM CLR 25/06 A2990 RMK AO2 SLP119 T02500056
 
KSMX - Santa Maria, California, USA
Distance from station: SSE 38mi, 62km
Updated: Sun, 20-May-2018 3:51pm
Mostly cloudy
Mostly cloudy
 Wind from WNW
Wind: WNW 25 mph , 41 km/h, Gust: 33 mph , 54 km/h
Temperature: 61°F , 16°C
Dew Point: 48°F , 9°C
Humidity: 63%
Barometer: 1014.2 hPa
Clouds: Mostly cloudy
Visibility: 8 miles , 13 km
Cloud details: Few Clouds 1900 ft
Mostly cloudy 20000 ft
2018/05/20 22:51 KSMX 202251Z 29022G29KT 8SM FEW019 BKN200 16/09 A2995 RMK AO2 PK WND 29030/2246 SLP143 T01610094 $
KVBG - Vandenberg Afb, California, USA
Distance from station: S 48mi, 78km
Updated: Sun, 20-May-2018 3:38pm
Mostly cloudy
Mostly cloudy
 Wind from NNW
Wind: NNW 21 mph , 33 km/h, Gust: 26 mph , 43 km/h
Temperature: 57°F , 14°C
Dew Point: 48°F , 9°C
Humidity: 72%
Barometer: 1014.9 hPa
Clouds: Mostly cloudy
Visibility: 7 miles , 11 km
Cloud details: Mostly cloudy 1300 ft
2018/05/20 22:38 KVBG 202238Z AUTO 34018G23KT 7SM BKN013 14/09 A2997 RMK AO2 LTG DSNT S BKN V SCT SLP152 $